world map with VVC marked

VVC - Airport

This information may not be accurate or current and is not valid for navigation or flight planning. No warranty of fitness for any purpose is made or implied.

flag of Metaflag of Colombia

Donate via PayPal

Additional information is available on the NEW Great Circle Mapper

Location
City:  Villavicencio, Meta, Colombia
Name:Vanguardia Airport
ICAO / IATA:SKVV / VVC

Details
Type:Airport (Aerodrome, Airfield)
Use:Public/Civil
Latitude:4°10'04"N (4.167875)
Longitude:73°36'50"W (-73.613760)
Datum:WGS 1984
Elevation:1394 ft (425 m)
Runways:1
Longest:5616 × 98 ft (1712 × 30 m)

Time
Timezone:UTC+29:08 (DST+31:08)
Local Time:

Weather
METAR:SKVV  122300Z 00000KT 9999 FEW020 SCT090 27/20 A2989

Related Locations
Nearby:
Farthest:AKQ: 12361 mi / 19893 km
Astraksetra [Gunung Batin], LA, ID

Find:

   beyond  
but within

Other Information
Maps:
Sources:

  


 


Great Circle Mapper   Great Circle Mapper
Great Circle Mapper FAQ   Great Circle Mapper FAQ
  Karl's Home Page
KLSē   KLSē Home
   GC on Facebook
Airlines of the World   Airlines of the World
Donate via PayPal


Copyright © 2004-2018, Karl L. Swartz. All rights reserved.
All trademarks mentioned herein belong to their respective owners.

Please see credits for attribution and copyright information.

Karl Swartz <karl@kls2.com>
  Powered by FreeBSD
Valid HTML 4.01!
Labeled with ICRA
hCard Microformat
Geo Microformat